Avalon, Texas
Current Conditions -  °F | °C
As of 7:15 PM on Sunday 23 Nov 2014 (Local Time) from KJWY Reporting Station
Clear Clear  
Wind Chill: 61°   Ceiling: Unl
Heat Index: 61°   Visibility: 10mi
Dew Point: 44°   Wind: 22mph
Humidity: 53%   Direction: 300°WNW
Pressure: 29.63"   Gusts: 30mph
Location:  32.21°N, 96.79°W
Report Text: KJWY 240115Z AUTO 30019G26KT 10SM CLR 16/06 A2963 RMK AO2 T01600064
Loading
Personal Weather Stations






























Interactive Weather Map New forecast layout! Learn more

10-Day Weather Forecast

Advertisements
Track Severe Weather on mobile